sensor_id;sensor_type;location;lat;lon;timestamp;temperature;humidity
10129;DHT22;5104;50.720;7.044;2023-05-19T00:02:22;9.00;11.20
10129;DHT22;5104;50.720;7.044;2023-05-19T00:04:50;8.90;57.10
10129;DHT22;5104;50.720;7.044;2023-05-19T00:07:18;8.80;28.10
10129;DHT22;5104;50.720;7.044;2023-05-19T00:09:45;8.80;1.00
10129;DHT22;5104;50.720;7.044;2023-05-19T00:12:15;8.80;99.90
10129;DHT22;5104;50.720;7.044;2023-05-19T00:14:42;8.70;1.00
10129;DHT22;5104;50.720;7.044;2023-05-19T00:17:09;8.70;1.00
10129;DHT22;5104;50.720;7.044;2023-05-19T00:19:36;8.70;1.00
10129;DHT22;5104;50.720;7.044;2023-05-19T00:22:03;8.60;99.90
10129;DHT22;5104;50.720;7.044;2023-05-19T00:24:30;8.60;1.00
10129;DHT22;5104;50.720;7.044;2023-05-19T00:26:57;8.60;99.90
10129;DHT22;5104;50.720;7.044;2023-05-19T00:29:25;8.60;99.90
10129;DHT22;5104;50.720;7.044;2023-05-19T00:31:52;8.50;99.90
10129;DHT22;5104;50.720;7.044;2023-05-19T00:34:19;8.40;1.00
10129;DHT22;5104;50.720;7.044;2023-05-19T00:36:46;8.40;1.00
10129;DHT22;5104;50.720;7.044;2023-05-19T00:39:13;8.40;99.90
10129;DHT22;5104;50.720;7.044;2023-05-19T00:41:40;8.40;1.00
10129;DHT22;5104;50.720;7.044;2023-05-19T00:44:07;8.30;1.00
10129;DHT22;5104;50.720;7.044;2023-05-19T00:46:35;8.20;64.10
10129;DHT22;5104;50.720;7.044;2023-05-19T00:49:02;8.20;99.90
10129;DHT22;5104;50.720;7.044;2023-05-19T00:51:29;8.10;1.00
10129;DHT22;5104;50.720;7.044;2023-05-19T00:53:56;8.00;1.00
10129;DHT22;5104;50.720;7.044;2023-05-19T00:56:23;8.10;1.00
10129;DHT22;5104;50.720;7.044;2023-05-19T00:58:51;8.20;99.90
10129;DHT22;5104;50.720;7.044;2023-05-19T01:01:18;8.20;1.00
10129;DHT22;5104;50.720;7.044;2023-05-19T01:03:47;8.20;13.70
10129;DHT22;5104;50.720;7.044;2023-05-19T01:06:14;8.20;1.00
10129;DHT22;5104;50.720;7.044;2023-05-19T01:08:43;8.20;1.00
10129;DHT22;5104;50.720;7.044;2023-05-19T01:11:10;8.20;20.70
10129;DHT22;5104;50.720;7.044;2023-05-19T01:13:37;8.20;1.00
10129;DHT22;5104;50.720;7.044;2023-05-19T01:16:08;8.20;1.00
10129;DHT22;5104;50.720;7.044;2023-05-19T01:18:52;8.10;1.00
10129;DHT22;5104;50.720;7.044;2023-05-19T01:21:45;8.00;99.90
10129;DHT22;5104;50.720;7.044;2023-05-19T01:24:29;8.10;99.90
10129;DHT22;5104;50.720;7.044;2023-05-19T01:30:24;7.90;1.00
10129;DHT22;5104;50.720;7.044;2023-05-19T01:32:53;7.80;99.90
10129;DHT22;5104;50.720;7.044;2023-05-19T01:35:22;7.70;51.90
10129;DHT22;5104;50.720;7.044;2023-05-19T01:37:51;7.60;77.40
10129;DHT22;5104;50.720;7.044;2023-05-19T01:40:21;7.60;29.70
10129;DHT22;5104;50.720;7.044;2023-05-19T01:42:50;7.60;1.00
10129;DHT22;5104;50.720;7.044;2023-05-19T01:45:20;7.50;38.60
10129;DHT22;5104;50.720;7.044;2023-05-19T01:47:50;7.50;1.00
10129;DHT22;5104;50.720;7.044;2023-05-19T01:50:17;7.50;1.00
10129;DHT22;5104;50.720;7.044;2023-05-19T01:52:44;7.50;99.90
10129;DHT22;5104;50.720;7.044;2023-05-19T01:55:11;7.50;1.00
10129;DHT22;5104;50.720;7.044;2023-05-19T01:57:44;7.50;74.10
10129;DHT22;5104;50.720;7.044;2023-05-19T02:00:21;7.50;1.00
10129;DHT22;5104;50.720;7.044;2023-05-19T02:02:59;7.40;1.00
10129;DHT22;5104;50.720;7.044;2023-05-19T02:05:33;7.40;1.00
10129;DHT22;5104;50.720;7.044;2023-05-19T02:08:11;7.50;1.00
10129;DHT22;5104;50.720;7.044;2023-05-19T02:10:40;7.40;1.00
10129;DHT22;5104;50.720;7.044;2023-05-19T02:13:12;7.40;99.90
10129;DHT22;5104;50.720;7.044;2023-05-19T02:15:41;7.30;11.90
10129;DHT22;5104;50.720;7.044;2023-05-19T02:18:09;7.30;1.00
10129;DHT22;5104;50.720;7.044;2023-05-19T02:20:37;7.30;1.00
10129;DHT22;5104;50.720;7.044;2023-05-19T02:23:04;7.10;99.90
10129;DHT22;5104;50.720;7.044;2023-05-19T02:25:31;7.10;99.90
10129;DHT22;5104;50.720;7.044;2023-05-19T02:27:58;7.10;99.90
10129;DHT22;5104;50.720;7.044;2023-05-19T02:30:25;7.10;1.00
10129;DHT22;5104;50.720;7.044;2023-05-19T02:32:53;7.10;99.90
10129;DHT22;5104;50.720;7.044;2023-05-19T02:35:20;7.20;1.00
10129;DHT22;5104;50.720;7.044;2023-05-19T02:37:47;7.10;1.00
10129;DHT22;5104;50.720;7.044;2023-05-19T02:40:14;7.00;99.90
10129;DHT22;5104;50.720;7.044;2023-05-19T02:42:41;7.00;1.00
10129;DHT22;5104;50.720;7.044;2023-05-19T02:45:08;7.00;1.00
10129;DHT22;5104;50.720;7.044;2023-05-19T02:47:35;6.90;1.00
10129;DHT22;5104;50.720;7.044;2023-05-19T02:50:05;6.90;1.00
10129;DHT22;5104;50.720;7.044;2023-05-19T02:52:32;6.90;1.00
10129;DHT22;5104;50.720;7.044;2023-05-19T02:54:59;6.90;1.00
10129;DHT22;5104;50.720;7.044;2023-05-19T02:57:27;6.90;1.00
10129;DHT22;5104;50.720;7.044;2023-05-19T02:59:56;6.90;1.00
10129;DHT22;5104;50.720;7.044;2023-05-19T03:02:23;7.00;1.00
10129;DHT22;5104;50.720;7.044;2023-05-19T03:04:49;7.00;1.00
10129;DHT22;5104;50.720;7.044;2023-05-19T03:07:18;7.00;1.00
10129;DHT22;5104;50.720;7.044;2023-05-19T03:09:49;6.90;99.90
10129;DHT22;5104;50.720;7.044;2023-05-19T03:12:17;6.80;1.00
10129;DHT22;5104;50.720;7.044;2023-05-19T03:14:43;6.80;1.00
10129;DHT22;5104;50.720;7.044;2023-05-19T03:17:11;6.80;20.10
10129;DHT22;5104;50.720;7.044;2023-05-19T03:19:38;6.80;99.90
10129;DHT22;5104;50.720;7.044;2023-05-19T03:22:05;6.80;1.00
10129;DHT22;5104;50.720;7.044;2023-05-19T03:24:34;6.80;1.00
10129;DHT22;5104;50.720;7.044;2023-05-19T03:27:01;6.80;1.00
10129;DHT22;5104;50.720;7.044;2023-05-19T03:29:29;6.80;99.90
10129;DHT22;5104;50.720;7.044;2023-05-19T03:31:56;6.80;1.00
10129;DHT22;5104;50.720;7.044;2023-05-19T03:34:24;6.70;1.00
10129;DHT22;5104;50.720;7.044;2023-05-19T03:36:52;6.80;99.90
10129;DHT22;5104;50.720;7.044;2023-05-19T03:39:19;6.70;1.00
10129;DHT22;5104;50.720;7.044;2023-05-19T03:41:47;6.60;1.00
10129;DHT22;5104;50.720;7.044;2023-05-19T03:44:14;6.60;99.90
10129;DHT22;5104;50.720;7.044;2023-05-19T03:46:41;6.60;1.00
10129;DHT22;5104;50.720;7.044;2023-05-19T03:49:08;6.60;28.30
10129;DHT22;5104;50.720;7.044;2023-05-19T03:51:36;6.50;1.00
10129;DHT22;5104;50.720;7.044;2023-05-19T03:54:03;6.50;1.00
10129;DHT22;5104;50.720;7.044;2023-05-19T03:56:30;6.60;1.00
10129;DHT22;5104;50.720;7.044;2023-05-19T03:58:58;6.50;99.90
10129;DHT22;5104;50.720;7.044;2023-05-19T04:01:25;6.60;1.00
10129;DHT22;5104;50.720;7.044;2023-05-19T04:03:52;6.60;1.00
10129;DHT22;5104;50.720;7.044;2023-05-19T04:06:19;6.70;1.00
10129;DHT22;5104;50.720;7.044;2023-05-19T04:08:46;6.70;1.00
10129;DHT22;5104;50.720;7.044;2023-05-19T04:11:13;6.70;99.90
10129;DHT22;5104;50.720;7.044;2023-05-19T04:13:40;6.80;1.00
10129;DHT22;5104;50.720;7.044;2023-05-19T04:16:08;6.80;30.70
10129;DHT22;5104;50.720;7.044;2023-05-19T04:18:35;6.80;1.00
10129;DHT22;5104;50.720;7.044;2023-05-19T04:21:02;6.80;99.90
10129;DHT22;5104;50.720;7.044;2023-05-19T04:23:29;6.90;1.00
10129;DHT22;5104;50.720;7.044;2023-05-19T04:25:56;6.90;1.00
10129;DHT22;5104;50.720;7.044;2023-05-19T04:28:23;7.00;1.00
10129;DHT22;5104;50.720;7.044;2023-05-19T04:30:50;7.00;1.00
10129;DHT22;5104;50.720;7.044;2023-05-19T04:33:18;7.10;1.00
10129;DHT22;5104;50.720;7.044;2023-05-19T04:35:45;7.10;99.90
10129;DHT22;5104;50.720;7.044;2023-05-19T04:38:14;7.10;1.00
10129;DHT22;5104;50.720;7.044;2023-05-19T04:40:43;7.20;99.90
10129;DHT22;5104;50.720;7.044;2023-05-19T04:43:10;7.30;99.90
10129;DHT22;5104;50.720;7.044;2023-05-19T04:45:36;7.40;1.00
10129;DHT22;5104;50.720;7.044;2023-05-19T04:48:07;7.40;1.00
10129;DHT22;5104;50.720;7.044;2023-05-19T04:50:35;7.50;1.00
10129;DHT22;5104;50.720;7.044;2023-05-19T04:53:03;7.50;1.00
10129;DHT22;5104;50.720;7.044;2023-05-19T04:55:30;7.60;1.00
10129;DHT22;5104;50.720;7.044;2023-05-19T04:57:57;7.70;99.90
10129;DHT22;5104;50.720;7.044;2023-05-19T05:00:24;7.80;99.90
10129;DHT22;5104;50.720;7.044;2023-05-19T05:02:51;7.90;25.40
10129;DHT22;5104;50.720;7.044;2023-05-19T05:05:17;8.00;1.00
10129;DHT22;5104;50.720;7.044;2023-05-19T05:07:46;8.10;1.00
10129;DHT22;5104;50.720;7.044;2023-05-19T05:10:14;8.20;1.00
10129;DHT22;5104;50.720;7.044;2023-05-19T05:12:41;8.30;1.00
10129;DHT22;5104;50.720;7.044;2023-05-19T05:15:09;8.40;1.00
10129;DHT22;5104;50.720;7.044;2023-05-19T05:17:37;8.50;99.90
10129;DHT22;5104;50.720;7.044;2023-05-19T05:20:05;8.60;99.90
10129;DHT22;5104;50.720;7.044;2023-05-19T05:22:33;8.70;23.80
10129;DHT22;5104;50.720;7.044;2023-05-19T05:25:02;8.70;23.10
10129;DHT22;5104;50.720;7.044;2023-05-19T05:27:29;8.90;1.00
10129;DHT22;5104;50.720;7.044;2023-05-19T05:29:57;9.00;99.90
10129;DHT22;5104;50.720;7.044;2023-05-19T05:32:24;9.20;99.90
10129;DHT22;5104;50.720;7.044;2023-05-19T05:34:51;9.30;99.90
10129;DHT22;5104;50.720;7.044;2023-05-19T05:37:18;9.50;99.90
10129;DHT22;5104;50.720;7.044;2023-05-19T05:39:45;9.60;1.00
10129;DHT22;5104;50.720;7.044;2023-05-19T05:42:13;9.70;99.90
10129;DHT22;5104;50.720;7.044;2023-05-19T05:44:40;9.80;60.90
10129;DHT22;5104;50.720;7.044;2023-05-19T05:47:08;9.90;1.00
10129;DHT22;5104;50.720;7.044;2023-05-19T05:49:37;9.80;1.00
10129;DHT22;5104;50.720;7.044;2023-05-19T05:52:05;10.00;1.00
10129;DHT22;5104;50.720;7.044;2023-05-19T05:54:34;10.10;1.00
10129;DHT22;5104;50.720;7.044;2023-05-19T05:57:01;10.20;1.00
10129;DHT22;5104;50.720;7.044;2023-05-19T05:59:30;10.30;1.00
10129;DHT22;5104;50.720;7.044;2023-05-19T06:01:58;10.50;1.00
10129;DHT22;5104;50.720;7.044;2023-05-19T06:04:25;10.50;1.00
10129;DHT22;5104;50.720;7.044;2023-05-19T06:06:52;10.70;1.00
10129;DHT22;5104;50.720;7.044;2023-05-19T06:09:25;10.70;99.90
10129;DHT22;5104;50.720;7.044;2023-05-19T06:11:52;10.70;99.90
10129;DHT22;5104;50.720;7.044;2023-05-19T06:14:19;10.70;99.90
10129;DHT22;5104;50.720;7.044;2023-05-19T06:16:47;10.80;99.90
10129;DHT22;5104;50.720;7.044;2023-05-19T06:19:14;10.90;99.90
10129;DHT22;5104;50.720;7.044;2023-05-19T06:21:41;11.00;99.90
10129;DHT22;5104;50.720;7.044;2023-05-19T06:24:08;11.10;99.90
10129;DHT22;5104;50.720;7.044;2023-05-19T06:26:35;11.20;99.90
10129;DHT22;5104;50.720;7.044;2023-05-19T06:29:02;11.40;95.80
10129;DHT22;5104;50.720;7.044;2023-05-19T06:31:30;11.50;3.00
10129;DHT22;5104;50.720;7.044;2023-05-19T06:33:59;11.50;1.00
10129;DHT22;5104;50.720;7.044;2023-05-19T06:36:26;11.60;1.00
10129;DHT22;5104;50.720;7.044;2023-05-19T06:38:53;11.70;1.00
10129;DHT22;5104;50.720;7.044;2023-05-19T06:41:20;11.70;1.00
10129;DHT22;5104;50.720;7.044;2023-05-19T06:43:47;11.90;1.00
10129;DHT22;5104;50.720;7.044;2023-05-19T06:46:14;11.90;1.00
10129;DHT22;5104;50.720;7.044;2023-05-19T06:48:42;11.80;1.00
10129;DHT22;5104;50.720;7.044;2023-05-19T06:51:10;11.90;1.00
10129;DHT22;5104;50.720;7.044;2023-05-19T06:53:37;12.00;1.00
10129;DHT22;5104;50.720;7.044;2023-05-19T06:56:05;12.00;1.00
10129;DHT22;5104;50.720;7.044;2023-05-19T06:58:32;12.00;1.00
10129;DHT22;5104;50.720;7.044;2023-05-19T07:00:59;12.30;1.00
10129;DHT22;5104;50.720;7.044;2023-05-19T07:03:26;12.40;1.00
10129;DHT22;5104;50.720;7.044;2023-05-19T07:05:53;12.50;1.00
10129;DHT22;5104;50.720;7.044;2023-05-19T07:08:22;12.60;1.00
10129;DHT22;5104;50.720;7.044;2023-05-19T07:10:49;12.70;99.90
10129;DHT22;5104;50.720;7.044;2023-05-19T07:13:15;12.80;99.90
10129;DHT22;5104;50.720;7.044;2023-05-19T07:15:42;12.90;99.90
10129;DHT22;5104;50.720;7.044;2023-05-19T07:18:09;12.90;44.90
10129;DHT22;5104;50.720;7.044;2023-05-19T07:20:36;13.00;8.30
10129;DHT22;5104;50.720;7.044;2023-05-19T07:23:03;13.10;1.00
10129;DHT22;5104;50.720;7.044;2023-05-19T07:25:32;13.20;1.00
10129;DHT22;5104;50.720;7.044;2023-05-19T07:27:59;13.30;1.00
10129;DHT22;5104;50.720;7.044;2023-05-19T07:30:27;13.40;1.00
10129;DHT22;5104;50.720;7.044;2023-05-19T07:32:54;13.50;1.00
10129;DHT22;5104;50.720;7.044;2023-05-19T07:35:21;13.60;1.00
10129;DHT22;5104;50.720;7.044;2023-05-19T07:37:48;13.70;1.00
10129;DHT22;5104;50.720;7.044;2023-05-19T07:40:15;13.80;1.00
10129;DHT22;5104;50.720;7.044;2023-05-19T07:42:44;13.80;1.00
10129;DHT22;5104;50.720;7.044;2023-05-19T07:45:10;13.80;1.00
10129;DHT22;5104;50.720;7.044;2023-05-19T07:47:37;13.70;1.00
10129;DHT22;5104;50.720;7.044;2023-05-19T07:50:05;13.90;1.00
10129;DHT22;5104;50.720;7.044;2023-05-19T07:52:33;14.10;1.00
10129;DHT22;5104;50.720;7.044;2023-05-19T07:55:00;14.20;1.00
10129;DHT22;5104;50.720;7.044;2023-05-19T07:57:27;14.30;1.00
10129;DHT22;5104;50.720;7.044;2023-05-19T07:59:55;14.40;1.00
10129;DHT22;5104;50.720;7.044;2023-05-19T08:02:22;14.40;1.00
10129;DHT22;5104;50.720;7.044;2023-05-19T08:04:49;14.30;1.00
10129;DHT22;5104;50.720;7.044;2023-05-19T08:07:16;14.40;1.00
10129;DHT22;5104;50.720;7.044;2023-05-19T08:09:43;14.40;1.00
10129;DHT22;5104;50.720;7.044;2023-05-19T08:12:10;14.50;1.00
10129;DHT22;5104;50.720;7.044;2023-05-19T08:14:37;14.60;1.00
10129;DHT22;5104;50.720;7.044;2023-05-19T08:17:05;14.50;1.00
10129;DHT22;5104;50.720;7.044;2023-05-19T08:19:32;14.60;1.00
10129;DHT22;5104;50.720;7.044;2023-05-19T08:21:59;14.80;1.00
10129;DHT22;5104;50.720;7.044;2023-05-19T08:24:28;14.90;1.00
10129;DHT22;5104;50.720;7.044;2023-05-19T08:26:57;15.00;1.00
10129;DHT22;5104;50.720;7.044;2023-05-19T08:29:24;15.10;1.00
10129;DHT22;5104;50.720;7.044;2023-05-19T08:31:51;15.20;1.00
10129;DHT22;5104;50.720;7.044;2023-05-19T08:34:20;15.20;1.00
10129;DHT22;5104;50.720;7.044;2023-05-19T08:36:46;15.30;1.00
10129;DHT22;5104;50.720;7.044;2023-05-19T08:39:14;15.40;1.00
10129;DHT22;5104;50.720;7.044;2023-05-19T08:41:42;15.40;1.00
10129;DHT22;5104;50.720;7.044;2023-05-19T08:44:09;15.40;1.00
10129;DHT22;5104;50.720;7.044;2023-05-19T08:46:36;15.60;1.00
10129;DHT22;5104;50.720;7.044;2023-05-19T08:49:07;15.60;1.00
10129;DHT22;5104;50.720;7.044;2023-05-19T08:51:40;15.70;1.00
10129;DHT22;5104;50.720;7.044;2023-05-19T08:54:13;15.90;1.00
10129;DHT22;5104;50.720;7.044;2023-05-19T08:56:42;15.90;1.00
10129;DHT22;5104;50.720;7.044;2023-05-19T08:59:11;15.90;99.90
10129;DHT22;5104;50.720;7.044;2023-05-19T09:01:39;15.80;1.00
10129;DHT22;5104;50.720;7.044;2023-05-19T09:04:07;16.00;1.00
10129;DHT22;5104;50.720;7.044;2023-05-19T09:06:34;16.10;99.90
10129;DHT22;5104;50.720;7.044;2023-05-19T09:09:03;16.10;99.90
10129;DHT22;5104;50.720;7.044;2023-05-19T09:11:31;16.20;99.90
10129;DHT22;5104;50.720;7.044;2023-05-19T09:14:00;16.20;99.90
10129;DHT22;5104;50.720;7.044;2023-05-19T09:16:28;16.30;99.90
10129;DHT22;5104;50.720;7.044;2023-05-19T09:18:56;16.20;99.90
10129;DHT22;5104;50.720;7.044;2023-05-19T09:21:27;16.50;99.90
10129;DHT22;5104;50.720;7.044;2023-05-19T09:23:56;16.60;99.90
10129;DHT22;5104;50.720;7.044;2023-05-19T09:26:35;16.70;99.90
10129;DHT22;5104;50.720;7.044;2023-05-19T09:29:10;16.70;99.90
10129;DHT22;5104;50.720;7.044;2023-05-19T09:31:37;16.80;99.90
10129;DHT22;5104;50.720;7.044;2023-05-19T09:34:04;16.80;99.90
10129;DHT22;5104;50.720;7.044;2023-05-19T09:36:38;16.70;99.90
10129;DHT22;5104;50.720;7.044;2023-05-19T09:39:12;16.80;99.90
10129;DHT22;5104;50.720;7.044;2023-05-19T09:41:41;16.90;99.90
10129;DHT22;5104;50.720;7.044;2023-05-19T09:44:12;17.00;99.90
10129;DHT22;5104;50.720;7.044;2023-05-19T09:46:46;17.10;99.90
10129;DHT22;5104;50.720;7.044;2023-05-19T09:49:18;17.30;99.90
10129;DHT22;5104;50.720;7.044;2023-05-19T09:51:48;17.30;99.90
10129;DHT22;5104;50.720;7.044;2023-05-19T09:54:15;17.30;99.90
10129;DHT22;5104;50.720;7.044;2023-05-19T09:56:44;17.40;99.90
10129;DHT22;5104;50.720;7.044;2023-05-19T09:59:12;17.60;99.90
10129;DHT22;5104;50.720;7.044;2023-05-19T10:01:41;17.30;99.90
10129;DHT22;5104;50.720;7.044;2023-05-19T10:04:12;17.60;99.90
10129;DHT22;5104;50.720;7.044;2023-05-19T10:06:40;17.80;99.90
10129;DHT22;5104;50.720;7.044;2023-05-19T10:09:07;17.80;99.90
10129;DHT22;5104;50.720;7.044;2023-05-19T10:11:34;17.80;99.90
10129;DHT22;5104;50.720;7.044;2023-05-19T10:14:03;17.90;99.90
10129;DHT22;5104;50.720;7.044;2023-05-19T10:16:30;18.20;99.90
10129;DHT22;5104;50.720;7.044;2023-05-19T10:18:58;18.50;99.90
10129;DHT22;5104;50.720;7.044;2023-05-19T10:21:26;18.60;99.90
10129;DHT22;5104;50.720;7.044;2023-05-19T10:23:53;18.90;99.90
10129;DHT22;5104;50.720;7.044;2023-05-19T10:26:21;19.40;99.90
10129;DHT22;5104;50.720;7.044;2023-05-19T10:28:49;19.20;99.90
10129;DHT22;5104;50.720;7.044;2023-05-19T10:31:19;18.90;99.90
10129;DHT22;5104;50.720;7.044;2023-05-19T10:34:04;19.10;99.90
10129;DHT22;5104;50.720;7.044;2023-05-19T10:36:46;18.80;99.90
10129;DHT22;5104;50.720;7.044;2023-05-19T10:39:20;19.00;99.90
10129;DHT22;5104;50.720;7.044;2023-05-19T10:41:56;19.10;99.90
10129;DHT22;5104;50.720;7.044;2023-05-19T10:44:34;19.20;99.90
10129;DHT22;5104;50.720;7.044;2023-05-19T10:47:07;19.20;99.90
10129;DHT22;5104;50.720;7.044;2023-05-19T10:49:36;19.10;99.90
10129;DHT22;5104;50.720;7.044;2023-05-19T10:52:18;19.10;99.90
10129;DHT22;5104;50.720;7.044;2023-05-19T10:54:46;19.30;99.90
10129;DHT22;5104;50.720;7.044;2023-05-19T10:57:16;19.50;99.90
10129;DHT22;5104;50.720;7.044;2023-05-19T10:59:44;19.20;99.90
10129;DHT22;5104;50.720;7.044;2023-05-19T11:02:36;19.30;99.90
10129;DHT22;5104;50.720;7.044;2023-05-19T11:05:06;19.50;99.90
10129;DHT22;5104;50.720;7.044;2023-05-19T11:07:35;19.60;99.90
10129;DHT22;5104;50.720;7.044;2023-05-19T11:10:05;19.60;99.90
10129;DHT22;5104;50.720;7.044;2023-05-19T11:12:39;19.70;99.90
10129;DHT22;5104;50.720;7.044;2023-05-19T11:15:08;19.80;99.90
10129;DHT22;5104;50.720;7.044;2023-05-19T11:17:38;19.80;99.90
10129;DHT22;5104;50.720;7.044;2023-05-19T11:20:08;19.90;99.90
10129;DHT22;5104;50.720;7.044;2023-05-19T11:22:36;19.60;99.90
10129;DHT22;5104;50.720;7.044;2023-05-19T11:25:05;19.70;99.90
10129;DHT22;5104;50.720;7.044;2023-05-19T11:27:34;20.10;99.90
10129;DHT22;5104;50.720;7.044;2023-05-19T11:30:09;20.10;99.90
10129;DHT22;5104;50.720;7.044;2023-05-19T11:32:41;20.10;99.90
10129;DHT22;5104;50.720;7.044;2023-05-19T11:35:09;19.80;99.90
10129;DHT22;5104;50.720;7.044;2023-05-19T11:37:36;20.10;99.90
10129;DHT22;5104;50.720;7.044;2023-05-19T11:40:06;20.30;99.90
10129;DHT22;5104;50.720;7.044;2023-05-19T11:42:34;20.40;99.90
10129;DHT22;5104;50.720;7.044;2023-05-19T11:45:02;20.30;99.90
10129;DHT22;5104;50.720;7.044;2023-05-19T11:47:30;20.30;99.90
10129;DHT22;5104;50.720;7.044;2023-05-19T11:50:00;20.20;99.90
10129;DHT22;5104;50.720;7.044;2023-05-19T11:52:27;20.10;99.90
10129;DHT22;5104;50.720;7.044;2023-05-19T11:54:53;19.90;99.90
10129;DHT22;5104;50.720;7.044;2023-05-19T11:57:21;19.90;99.90
10129;DHT22;5104;50.720;7.044;2023-05-19T11:59:48;20.20;99.90
10129;DHT22;5104;50.720;7.044;2023-05-19T12:02:18;20.50;99.90
10129;DHT22;5104;50.720;7.044;2023-05-19T12:04:45;20.60;99.90
10129;DHT22;5104;50.720;7.044;2023-05-19T12:07:15;20.50;99.90
10129;DHT22;5104;50.720;7.044;2023-05-19T12:09:43;20.70;99.90
10129;DHT22;5104;50.720;7.044;2023-05-19T12:12:13;20.80;99.90
10129;DHT22;5104;50.720;7.044;2023-05-19T12:14:40;20.70;99.90
10129;DHT22;5104;50.720;7.044;2023-05-19T12:17:11;20.70;99.90
10129;DHT22;5104;50.720;7.044;2023-05-19T12:19:38;20.80;99.90
10129;DHT22;5104;50.720;7.044;2023-05-19T12:22:06;20.90;99.90
10129;DHT22;5104;50.720;7.044;2023-05-19T12:24:36;20.80;99.90
10129;DHT22;5104;50.720;7.044;2023-05-19T12:27:09;20.70;99.90
10129;DHT22;5104;50.720;7.044;2023-05-19T12:29:37;20.70;99.90
10129;DHT22;5104;50.720;7.044;2023-05-19T12:32:05;20.50;99.90
10129;DHT22;5104;50.720;7.044;2023-05-19T12:34:35;20.40;99.90
10129;DHT22;5104;50.720;7.044;2023-05-19T12:37:03;20.50;99.90
10129;DHT22;5104;50.720;7.044;2023-05-19T12:39:30;20.20;99.90
10129;DHT22;5104;50.720;7.044;2023-05-19T12:42:02;20.40;99.90
10129;DHT22;5104;50.720;7.044;2023-05-19T12:44:29;20.40;99.90
10129;DHT22;5104;50.720;7.044;2023-05-19T12:46:56;20.60;99.90
10129;DHT22;5104;50.720;7.044;2023-05-19T12:49:24;20.60;99.90
10129;DHT22;5104;50.720;7.044;2023-05-19T12:51:51;20.80;99.90
10129;DHT22;5104;50.720;7.044;2023-05-19T12:54:19;21.00;99.90
10129;DHT22;5104;50.720;7.044;2023-05-19T12:56:49;21.10;99.90
10129;DHT22;5104;50.720;7.044;2023-05-19T12:59:22;21.20;99.90
10129;DHT22;5104;50.720;7.044;2023-05-19T13:01:56;21.10;99.90
10129;DHT22;5104;50.720;7.044;2023-05-19T13:04:23;21.20;99.90
10129;DHT22;5104;50.720;7.044;2023-05-19T13:06:51;21.40;99.90
10129;DHT22;5104;50.720;7.044;2023-05-19T13:09:18;21.40;99.90
10129;DHT22;5104;50.720;7.044;2023-05-19T13:11:46;21.70;99.90
10129;DHT22;5104;50.720;7.044;2023-05-19T13:14:15;21.80;99.90
10129;DHT22;5104;50.720;7.044;2023-05-19T13:16:44;21.70;99.90
10129;DHT22;5104;50.720;7.044;2023-05-19T13:19:12;22.00;99.90
10129;DHT22;5104;50.720;7.044;2023-05-19T13:21:39;21.90;99.90
10129;DHT22;5104;50.720;7.044;2023-05-19T13:24:06;22.10;99.90
10129;DHT22;5104;50.720;7.044;2023-05-19T13:26:33;22.10;99.90
10129;DHT22;5104;50.720;7.044;2023-05-19T13:29:01;22.00;99.90
10129;DHT22;5104;50.720;7.044;2023-05-19T13:31:28;21.70;99.90
10129;DHT22;5104;50.720;7.044;2023-05-19T13:33:56;21.80;99.90
10129;DHT22;5104;50.720;7.044;2023-05-19T13:36:24;22.00;99.90
10129;DHT22;5104;50.720;7.044;2023-05-19T13:38:51;22.00;99.90
10129;DHT22;5104;50.720;7.044;2023-05-19T13:41:22;21.80;99.90
10129;DHT22;5104;50.720;7.044;2023-05-19T13:43:49;21.90;99.90
10129;DHT22;5104;50.720;7.044;2023-05-19T13:46:16;22.00;99.90
10129;DHT22;5104;50.720;7.044;2023-05-19T13:48:43;22.10;99.90
10129;DHT22;5104;50.720;7.044;2023-05-19T13:51:11;22.00;99.90
10129;DHT22;5104;50.720;7.044;2023-05-19T13:53:38;22.00;99.90
10129;DHT22;5104;50.720;7.044;2023-05-19T13:56:05;22.10;99.90
10129;DHT22;5104;50.720;7.044;2023-05-19T13:58:32;22.20;99.90
10129;DHT22;5104;50.720;7.044;2023-05-19T14:00:59;22.10;99.90
10129;DHT22;5104;50.720;7.044;2023-05-19T14:03:26;22.10;99.90
10129;DHT22;5104;50.720;7.044;2023-05-19T14:05:54;22.20;99.90
10129;DHT22;5104;50.720;7.044;2023-05-19T14:08:22;22.50;99.90
10129;DHT22;5104;50.720;7.044;2023-05-19T14:10:50;22.80;99.90
10129;DHT22;5104;50.720;7.044;2023-05-19T14:13:17;22.50;99.90
10129;DHT22;5104;50.720;7.044;2023-05-19T14:15:44;22.50;99.90
10129;DHT22;5104;50.720;7.044;2023-05-19T14:18:11;22.60;99.90
10129;DHT22;5104;50.720;7.044;2023-05-19T14:20:38;23.00;99.90
10129;DHT22;5104;50.720;7.044;2023-05-19T14:23:05;23.00;99.90
10129;DHT22;5104;50.720;7.044;2023-05-19T14:25:33;23.10;99.90
10129;DHT22;5104;50.720;7.044;2023-05-19T14:28:00;23.60;99.90
10129;DHT22;5104;50.720;7.044;2023-05-19T14:30:27;24.30;99.90
10129;DHT22;5104;50.720;7.044;2023-05-19T14:32:54;24.90;99.90
10129;DHT22;5104;50.720;7.044;2023-05-19T14:35:21;25.80;94.50
10129;DHT22;5104;50.720;7.044;2023-05-19T14:37:49;27.10;81.80
10129;DHT22;5104;50.720;7.044;2023-05-19T14:40:16;27.40;72.90
10129;DHT22;5104;50.720;7.044;2023-05-19T14:42:44;26.90;81.20
10129;DHT22;5104;50.720;7.044;2023-05-19T14:45:11;27.10;65.30
10129;DHT22;5104;50.720;7.044;2023-05-19T14:47:38;26.80;69.80
10129;DHT22;5104;50.720;7.044;2023-05-19T14:50:06;26.40;69.80
10129;DHT22;5104;50.720;7.044;2023-05-19T14:52:33;26.70;57.60
10129;DHT22;5104;50.720;7.044;2023-05-19T14:55:00;27.50;52.20
10129;DHT22;5104;50.720;7.044;2023-05-19T14:57:27;28.20;44.00
10129;DHT22;5104;50.720;7.044;2023-05-19T14:59:55;28.80;40.50
10129;DHT22;5104;50.720;7.044;2023-05-19T15:02:22;28.80;43.00
10129;DHT22;5104;50.720;7.044;2023-05-19T15:04:49;28.50;64.90
10129;DHT22;5104;50.720;7.044;2023-05-19T15:07:16;28.00;46.70
10129;DHT22;5104;50.720;7.044;2023-05-19T15:09:43;28.20;45.10
10129;DHT22;5104;50.720;7.044;2023-05-19T15:12:10;28.30;43.70
10129;DHT22;5104;50.720;7.044;2023-05-19T15:14:36;28.00;44.00
10129;DHT22;5104;50.720;7.044;2023-05-19T15:17:05;28.00;38.40
10129;DHT22;5104;50.720;7.044;2023-05-19T15:19:32;28.00;36.60
10129;DHT22;5104;50.720;7.044;2023-05-19T15:21:59;27.30;41.80
10129;DHT22;5104;50.720;7.044;2023-05-19T15:24:26;26.60;42.80
10129;DHT22;5104;50.720;7.044;2023-05-19T15:26:53;25.70;47.90
10129;DHT22;5104;50.720;7.044;2023-05-19T15:29:20;24.80;54.80
10129;DHT22;5104;50.720;7.044;2023-05-19T15:31:48;24.00;66.70
10129;DHT22;5104;50.720;7.044;2023-05-19T15:34:17;23.70;73.10
10129;DHT22;5104;50.720;7.044;2023-05-19T15:36:44;24.30;69.60
10129;DHT22;5104;50.720;7.044;2023-05-19T15:39:11;25.30;62.70
10129;DHT22;5104;50.720;7.044;2023-05-19T15:41:38;26.60;57.60
10129;DHT22;5104;50.720;7.044;2023-05-19T15:44:05;26.30;53.40
10129;DHT22;5104;50.720;7.044;2023-05-19T15:46:32;27.10;46.60
10129;DHT22;5104;50.720;7.044;2023-05-19T15:48:59;28.30;35.90
10129;DHT22;5104;50.720;7.044;2023-05-19T15:51:28;29.00;32.20
10129;DHT22;5104;50.720;7.044;2023-05-19T15:53:55;29.20;26.60
10129;DHT22;5104;50.720;7.044;2023-05-19T15:56:22;29.60;43.10
10129;DHT22;5104;50.720;7.044;2023-05-19T15:58:50;29.10;27.10
10129;DHT22;5104;50.720;7.044;2023-05-19T16:01:17;28.60;30.30
10129;DHT22;5104;50.720;7.044;2023-05-19T16:03:44;27.80;32.40
10129;DHT22;5104;50.720;7.044;2023-05-19T16:06:11;27.50;31.70
10129;DHT22;5104;50.720;7.044;2023-05-19T16:08:39;26.80;33.90